createdAt,value
2022-10-22T00:03:52.067Z,75856.59
2022-10-22T00:07:53.514Z,75866.97
2022-10-22T00:11:54.966Z,75848.28
2022-10-22T00:15:57.770Z,75840.00
2022-10-22T00:19:59.446Z,75804.69
2022-10-22T00:24:01.548Z,75796.41
2022-10-22T00:28:03.947Z,75804.69
2022-10-22T00:32:07.213Z,75802.63
2022-10-22T00:36:09.332Z,75775.63
2022-10-22T00:40:12.397Z,75796.41
2022-10-22T00:44:51.118Z,75802.63
2022-10-22T00:48:56.375Z,75821.31
2022-10-22T00:52:58.534Z,75835.84
2022-10-22T00:57:00.883Z,75821.31
2022-10-22T01:01:03.193Z,75831.69
2022-10-22T01:05:07.247Z,75829.59
2022-10-22T01:09:20.153Z,75823.38
2022-10-22T01:13:31.696Z,75842.06
2022-10-22T01:17:41.193Z,75854.53
2022-10-22T01:21:48.711Z,75864.91
2022-10-22T01:25:57.165Z,75858.66
2022-10-22T01:30:03.514Z,75854.53
2022-10-22T01:34:08.316Z,75866.97
2022-10-22T01:38:15.026Z,75881.50
2022-10-22T01:42:16.673Z,75896.03
2022-10-22T01:46:22.260Z,75883.59
2022-10-22T01:50:48.118Z,75862.81
2022-10-22T01:54:59.638Z,75869.06
2022-10-22T01:59:06.890Z,75837.91
2022-10-22T02:03:18.612Z,75887.72
2022-10-22T02:07:29.166Z,75875.28
2022-10-22T02:11:31.310Z,75881.50
2022-10-22T02:15:38.258Z,75887.72
2022-10-22T02:19:47.589Z,75873.19
2022-10-22T02:23:49.325Z,75864.91
2022-10-22T02:27:59.341Z,75850.38
2022-10-22T02:32:03.641Z,75844.13
2022-10-22T02:40:32.370Z,75875.28
2022-10-22T02:44:34.134Z,75860.75
2022-10-22T02:48:35.579Z,75879.44
2022-10-22T02:52:39.035Z,75912.66
2022-10-22T02:56:40.987Z,75896.03
2022-10-22T03:00:42.675Z,75887.72
2022-10-22T03:04:44.147Z,75898.13
2022-10-22T03:08:47.090Z,75927.19
2022-10-22T03:12:48.633Z,75954.16
2022-10-22T03:16:50.097Z,75964.53
2022-10-22T03:21:04.352Z,75985.31
2022-10-22T03:25:11.502Z,76006.06
2022-10-22T03:29:15.255Z,75968.69
2022-10-22T03:33:16.863Z,75999.84
2022-10-22T03:37:19.027Z,76022.69
2022-10-22T03:41:22.235Z,76018.53
2022-10-22T03:45:23.895Z,75985.31
2022-10-22T03:49:27.130Z,75987.38
2022-10-22T03:53:28.842Z,76004.00
2022-10-22T03:57:31.994Z,75987.38
2022-10-22T04:01:33.598Z,76001.91
2022-10-22T04:05:35.118Z,76004.00
2022-10-22T04:09:36.714Z,75983.22
2022-10-22T04:13:39.613Z,76006.06
2022-10-22T04:17:41.291Z,75995.69
2022-10-22T04:21:43.222Z,76020.59
2022-10-22T04:25:44.899Z,76041.38
2022-10-22T04:29:47.690Z,75999.84
2022-10-22T04:33:52.842Z,75991.53
2022-10-22T04:37:54.302Z,76024.75
2022-10-22T04:41:55.939Z,76055.91
2022-10-22T04:46:01.708Z,76080.81
2022-10-22T04:50:03.912Z,76111.94
2022-10-22T04:54:05.681Z,76105.72
2022-10-22T04:58:07.094Z,76126.47
2022-10-22T05:02:10.142Z,76136.84
2022-10-22T05:10:19.630Z,76151.41
2022-10-22T05:14:22.985Z,76145.16
2022-10-22T05:18:25.771Z,76168.00
2022-10-22T05:22:27.501Z,76178.38
2022-10-22T05:26:29.883Z,76186.69
2022-10-22T05:30:31.686Z,76203.28
2022-10-22T05:34:34.857Z,76215.75
2022-10-22T05:38:36.546Z,76219.91
2022-10-22T05:42:38.408Z,76213.69
2022-10-22T05:46:40.675Z,76226.13
2022-10-22T05:50:43.735Z,76240.66
2022-10-22T05:54:45.387Z,76238.59
2022-10-22T05:58:46.810Z,76244.81
2022-10-22T06:02:50.918Z,76255.19
2022-10-22T06:06:54.022Z,76257.28
2022-10-22T06:10:55.814Z,76263.50
2022-10-22T06:14:57.279Z,76267.66
2022-10-22T06:19:00.023Z,76275.97
2022-10-22T06:23:03.122Z,76298.81
2022-10-22T06:27:04.794Z,76278.03
2022-10-22T06:31:06.890Z,76300.88
2022-10-22T06:35:08.534Z,76305.03
2022-10-22T06:39:14.624Z,76300.88
2022-10-22T06:43:16.339Z,76275.97
2022-10-22T06:47:18.036Z,76284.28
2022-10-22T06:51:19.807Z,76261.44
2022-10-22T06:55:22.869Z,76244.81
2022-10-22T06:59:24.466Z,76232.38
2022-10-22T07:03:25.982Z,76234.44
2022-10-22T07:07:27.648Z,76240.66
2022-10-22T07:11:37.037Z,76221.97
2022-10-22T07:15:39.490Z,76207.44
2022-10-22T07:19:40.911Z,76180.47
2022-10-22T07:23:42.914Z,76153.47
2022-10-22T07:27:45.874Z,76136.84
2022-10-22T07:31:47.718Z,76099.50
2022-10-22T07:35:49.224Z,76051.75
2022-10-22T07:39:50.680Z,76051.75
2022-10-22T07:43:53.640Z,76047.59
2022-10-22T07:47:55.292Z,76041.38
2022-10-22T07:51:56.812Z,76026.84
2022-10-22T07:55:58.384Z,76039.28
2022-10-22T08:00:01.545Z,76020.59
2022-10-22T08:04:02.997Z,76004.00
2022-10-22T08:08:04.761Z,76004.00
2022-10-22T08:12:07.019Z,76008.16
2022-10-22T08:16:10.295Z,76008.16
2022-10-22T08:20:12.079Z,76001.91
2022-10-22T08:24:14.398Z,76018.53
2022-10-22T08:28:19.890Z,76012.28
2022-10-22T08:32:24.958Z,75995.69
2022-10-22T08:36:26.759Z,75958.31
2022-10-22T08:40:31.988Z,75970.78
2022-10-22T08:44:59.119Z,75968.69
2022-10-22T08:49:04.585Z,75970.78
2022-10-22T08:53:16.478Z,75958.31
2022-10-22T08:57:42.365Z,75947.94
2022-10-22T09:01:46.773Z,75918.88
2022-10-22T09:05:58.849Z,75933.41
2022-10-22T09:10:01.766Z,75943.78
2022-10-22T09:14:04.113Z,75956.25
2022-10-22T09:18:21.514Z,75966.63
2022-10-22T09:26:41.857Z,75960.41
2022-10-22T09:30:43.497Z,75960.41
2022-10-22T09:34:46.022Z,75983.22
2022-10-22T09:38:51.209Z,75964.53
2022-10-22T09:42:52.718Z,75991.53
2022-10-22T09:46:57.905Z,75997.75
2022-10-22T09:51:05.981Z,75991.53
2022-10-22T09:55:15.982Z,75991.53
2022-10-22T09:59:24.433Z,75999.84
2022-10-22T10:03:30.688Z,76016.44
2022-10-22T10:07:34.184Z,76016.44
2022-10-22T10:11:45.412Z,76033.06
2022-10-22T10:15:54.302Z,76020.59
2022-10-22T10:20:05.630Z,76033.06
2022-10-22T10:24:14.553Z,76047.59
2022-10-22T10:28:29.776Z,76057.97
2022-10-22T10:32:46.171Z,76051.75
2022-10-22T10:36:59.803Z,76053.81
2022-10-22T10:41:14.385Z,76049.66
2022-10-22T10:45:23.203Z,76060.03
2022-10-22T10:49:26.507Z,76041.38
2022-10-22T10:53:42.823Z,76022.69
2022-10-22T10:57:53.830Z,76020.59
2022-10-22T11:02:17.841Z,76016.44
2022-10-22T11:06:23.147Z,76022.69
2022-10-22T11:10:31.665Z,76022.69
2022-10-22T11:14:39.999Z,76004.00
2022-10-22T11:18:48.317Z,76026.84
2022-10-22T11:23:17.726Z,76014.38
2022-10-22T11:27:24.366Z,76020.59
2022-10-22T11:31:26.763Z,76033.06
2022-10-22T11:35:33.912Z,76037.22
2022-10-22T11:39:40.755Z,76030.97
2022-10-22T11:43:57.606Z,75999.84
2022-10-22T11:48:07.137Z,75983.22
2022-10-22T11:52:37.120Z,75995.69
2022-10-22T11:56:39.241Z,75995.69
2022-10-22T12:00:47.816Z,75991.53
2022-10-22T12:04:49.367Z,75974.94
2022-10-22T12:08:58.958Z,75995.69
2022-10-22T12:13:05.649Z,75970.78
2022-10-22T12:17:11.426Z,75941.72
2022-10-22T12:21:13.612Z,75906.41
2022-10-22T12:25:23.147Z,75858.66
2022-10-22T12:29:24.873Z,75734.13
2022-10-22T12:33:26.326Z,75680.16
2022-10-22T12:37:29.643Z,75663.53
2022-10-22T12:41:35.076Z,75622.03
2022-10-22T12:45:36.999Z,75646.94
2022-10-22T12:49:42.988Z,75649.00
2022-10-22T12:53:47.426Z,75638.63
2022-10-22T12:57:50.403Z,75692.59
2022-10-22T13:01:54.251Z,75705.06
2022-10-22T13:05:55.783Z,75688.44
2022-10-22T13:09:59.531Z,75688.44
2022-10-22T13:14:03.796Z,75725.81
2022-10-22T13:18:15.728Z,75742.41
2022-10-22T13:22:32.712Z,75734.13
2022-10-22T13:26:38.645Z,75742.41
2022-10-22T13:30:52.402Z,75696.75
2022-10-22T13:35:07.594Z,75671.84
2022-10-22T13:39:16.892Z,75702.97
2022-10-22T13:43:19.385Z,75715.44
2022-10-22T13:47:27.835Z,75729.97
2022-10-22T13:51:34.002Z,75752.81
2022-10-22T13:55:35.726Z,75750.72
2022-10-22T13:59:41.599Z,75725.81
2022-10-22T14:03:44.677Z,75752.81
2022-10-22T14:07:46.316Z,75779.78
2022-10-22T14:11:47.811Z,75808.84
2022-10-22T14:15:51.327Z,75821.31
2022-10-22T14:19:55.449Z,75827.53
2022-10-22T14:23:56.903Z,75804.69
2022-10-22T14:27:58.572Z,75794.31
2022-10-22T14:32:00.273Z,75783.94
2022-10-22T14:36:03.261Z,75777.72
2022-10-22T14:40:05.923Z,75788.09
2022-10-22T14:44:10.168Z,75792.25
2022-10-22T14:48:11.836Z,75800.53
2022-10-22T14:52:15.103Z,75802.63
2022-10-22T14:56:18.129Z,75815.06
2022-10-22T15:00:19.852Z,75817.16
2022-10-22T15:04:22.085Z,75821.31
2022-10-22T15:08:25.016Z,75821.31
2022-10-22T15:12:26.812Z,75842.06
2022-10-22T15:16:28.388Z,75871.13
2022-10-22T15:20:30.068Z,75879.44
2022-10-22T15:24:32.962Z,75875.28
2022-10-22T15:28:34.611Z,75902.28
2022-10-22T15:32:36.191Z,75918.88
2022-10-22T15:36:37.588Z,75896.03
2022-10-22T15:40:40.987Z,75920.94
2022-10-22T15:44:42.730Z,75933.41
2022-10-22T15:48:45.344Z,75958.31
2022-10-22T15:52:46.911Z,75981.16
2022-10-22T15:56:50.603Z,75999.84
2022-10-22T16:00:52.407Z,76006.06
2022-10-22T16:04:53.870Z,76012.28
2022-10-22T16:08:57.886Z,76028.91
2022-10-22T16:13:00.779Z,76053.81
2022-10-22T16:17:02.183Z,76076.66
2022-10-22T16:21:03.971Z,76099.50
2022-10-22T16:25:06.163Z,76116.09
2022-10-22T16:29:09.083Z,76130.63
2022-10-22T16:33:11.489Z,76155.53
2022-10-22T16:37:12.911Z,76153.47
2022-10-22T16:41:16.170Z,76157.63
2022-10-22T16:45:19.107Z,76153.47
2022-10-22T16:49:20.631Z,76157.63
2022-10-22T16:53:22.245Z,76147.25
2022-10-22T16:57:24.010Z,76149.31
2022-10-22T17:01:27.657Z,76138.94
2022-10-22T17:05:29.254Z,76149.31
2022-10-22T17:09:30.940Z,76155.53
2022-10-22T17:13:32.363Z,76132.72
2022-10-22T17:17:35.230Z,76107.78
2022-10-22T17:21:36.822Z,76097.41
2022-10-22T17:25:42.986Z,76136.84
2022-10-22T17:29:44.498Z,76165.94
2022-10-22T17:33:48.928Z,76195.00
2022-10-22T17:37:50.483Z,76203.28
2022-10-22T17:41:52.489Z,76195.00
2022-10-22T17:46:02.264Z,76188.75
2022-10-22T17:50:05.903Z,76170.06
2022-10-22T17:54:09.807Z,76161.78
2022-10-22T17:58:11.815Z,76163.84
2022-10-22T18:02:16.581Z,76172.16
2022-10-22T18:06:19.862Z,76186.69
2022-10-22T18:10:21.439Z,76201.22
2022-10-22T18:14:23.579Z,76211.59
2022-10-22T18:18:25.222Z,76221.97
2022-10-22T18:22:28.227Z,76236.50
2022-10-22T18:26:29.784Z,76257.28
2022-10-22T18:30:31.333Z,76265.59
2022-10-22T18:34:33.971Z,76290.50
2022-10-22T18:38:37.383Z,76298.81
2022-10-22T18:42:39.850Z,76305.03
2022-10-22T18:46:41.576Z,76315.41
2022-10-22T18:50:43.467Z,76329.94
2022-10-22T18:54:46.259Z,76340.31
2022-10-22T18:58:48.920Z,76342.41
2022-10-22T19:02:50.519Z,76336.19
2022-10-22T19:06:52.091Z,76352.78
2022-10-22T19:10:55.132Z,76350.72
2022-10-22T19:14:56.530Z,76359.00
2022-10-22T19:19:03.323Z,76363.16
2022-10-22T19:23:04.967Z,76340.31
2022-10-22T19:27:07.975Z,76311.25
2022-10-22T19:31:12.556Z,76298.81
2022-10-22T19:35:14.117Z,76259.34
2022-10-22T19:39:16.700Z,76251.06
2022-10-22T19:43:19.471Z,76244.81
2022-10-22T19:47:20.900Z,76240.66
2022-10-22T19:51:25.980Z,76248.97
2022-10-22T19:55:27.587Z,76234.44
2022-10-22T19:59:32.164Z,76230.28
2022-10-22T20:03:35.247Z,76230.28
2022-10-22T20:07:36.690Z,76253.13
2022-10-22T20:11:39.158Z,76253.13
2022-10-22T20:15:42.059Z,76253.13
2022-10-22T20:19:43.474Z,76265.59
2022-10-22T20:23:45.955Z,76248.97
2022-10-22T20:27:47.523Z,76236.50
2022-10-22T20:31:50.659Z,76232.38
2022-10-22T20:35:59.230Z,76228.22
2022-10-22T20:40:00.647Z,76275.97
2022-10-22T20:44:02.092Z,76313.34
2022-10-22T20:48:05.687Z,76332.03
2022-10-22T20:52:07.508Z,76342.41
2022-10-22T20:56:09.282Z,76356.94
2022-10-22T21:00:11.755Z,76365.25
2022-10-22T21:04:15.140Z,76365.25
2022-10-22T21:08:16.835Z,76381.84
2022-10-22T21:12:18.607Z,76398.47
2022-10-22T21:16:20.146Z,76402.63
2022-10-22T21:20:24.770Z,76417.16
2022-10-22T21:24:26.579Z,76421.31
2022-10-22T21:32:35.147Z,76427.53
2022-10-22T21:36:38.065Z,76423.38
2022-10-22T21:40:39.471Z,76427.53
2022-10-22T21:44:40.999Z,76433.75
2022-10-22T21:48:43.042Z,76431.69
2022-10-22T21:52:45.778Z,76402.63
2022-10-22T21:56:47.286Z,76415.06
2022-10-22T22:00:55.122Z,76423.38
2022-10-22T22:04:56.703Z,76402.63
2022-10-22T22:08:59.664Z,76381.84
2022-10-22T22:13:01.266Z,76386.00
2022-10-22T22:17:02.804Z,76386.00
2022-10-22T22:21:05.861Z,76367.31
2022-10-22T22:25:09.350Z,76386.00
2022-10-22T22:29:11.094Z,76375.63
2022-10-22T22:33:12.623Z,76352.78
2022-10-22T22:37:14.183Z,76365.25
2022-10-22T22:41:16.905Z,76361.09
2022-10-22T22:45:18.444Z,76383.94
2022-10-22T22:49:20.025Z,76381.84
2022-10-22T22:53:21.682Z,76379.78
2022-10-22T22:57:24.602Z,76390.16
2022-10-22T23:01:28.041Z,76352.78
2022-10-22T23:05:29.727Z,76336.19
2022-10-22T23:09:31.266Z,76340.31
2022-10-22T23:13:34.474Z,76323.72
2022-10-22T23:21:46.235Z,76329.94
2022-10-22T23:25:47.952Z,76342.41
2022-10-22T23:29:50.859Z,76359.00
2022-10-22T23:33:52.406Z,76377.69
2022-10-22T23:37:53.786Z,76390.16
2022-10-22T23:41:55.462Z,76419.22
2022-10-22T23:45:58.354Z,76423.38
2022-10-22T23:49:59.895Z,76390.16
2022-10-22T23:54:03.559Z,76404.69
2022-10-22T23:58:04.954Z,76417.16
